Oklahoma City, Oklahoma
Current Conditions -  °F | °C
As of 8:52 AM on Thursday 30 Oct 2014 (Local Time) from KOKC Reporting Station
Scattered Clouds Scattered Clouds  
Wind Chill: 52°   Ceiling: Unl
Heat Index: 52°   Visibility: 10mi
Dew Point: 44°   Wind: 3mph
Humidity: 74%   Direction: 190°S
Pressure: 30.13"   Gusts: NA
Location:  35.47°N, 97.52°W
Report Text: KOKC 301352Z 19003KT 10SM SCT090 11/07 A3013 RMK AO2 SLP199 T01110067
Loading
Personal Weather Stations






























Interactive Weather Map New forecast layout! Learn more

10-Day Weather Forecast

Advertisements
Track Severe Weather on mobile